Time;durP1;ratioP1;P1;durP2;ratioP2;P2;SDS_P1;SDS_P2;PMS_P1;PMS_P2;Temp;Humidity;BMP_temperature;BMP_pressure;BME280_temperature;BME280_humidity;BME280_pressure;Samples;Min_cycle;Max_cycle;Signal;HPM_P1;HPM_P2
2022/05/16 00:00:30;;;;;;;8.73;2.67;;;15.90;99.90;;;;;;5027283;28;20036;-60
2022/05/16 00:03:00;;;;;;;5.32;2.03;;;16.00;99.90;;;;;;5029318;28;20036;-61
2022/05/16 00:05:25;;;;;;;5.70;2.15;;;16.00;99.90;;;;;;5030185;28;20028;-60
2022/05/16 00:07:53;;;;;;;3.78;2.00;;;16.00;99.90;;;;;;5029166;28;20029;-61
2022/05/16 00:10:19;;;;;;;5.03;2.25;;;15.90;99.90;;;;;;5029601;28;20386;-61
2022/05/16 00:12:45;;;;;;;6.63;1.77;;;16.00;99.90;;;;;;5028539;28;20033;-61
2022/05/16 00:15:12;;;;;;;3.42;1.85;;;15.90;99.90;;;;;;5028275;28;20435;-61
2022/05/16 00:17:38;;;;;;;9.52;2.85;;;16.00;99.90;;;;;;5028963;28;20219;-61
2022/05/16 00:20:05;;;;;;;3.88;1.65;;;16.00;99.90;;;;;;5029123;28;20179;-60
2022/05/16 00:22:31;;;;;;;6.00;1.75;;;15.90;99.90;;;;;;5029578;28;20017;-61
2022/05/16 00:24:57;;;;;;;4.28;2.35;;;15.90;99.90;;;;;;5028904;28;20033;-61
2022/05/16 00:27:23;;;;;;;4.30;2.30;;;15.90;99.90;;;;;;5025944;28;20033;-61
2022/05/16 00:29:48;;;;;;;4.32;1.92;;;15.80;99.90;;;;;;5028190;28;20032;-60
2022/05/16 00:32:15;;;;;;;6.28;2.15;;;15.70;99.90;;;;;;5029757;28;20401;-61
2022/05/16 00:34:40;;;;;;;6.25;2.20;;;15.70;99.90;;;;;;5025169;28;20017;-60
2022/05/16 00:37:06;;;;;;;3.85;1.98;;;15.60;99.90;;;;;;5026235;28;20095;-57
2022/05/16 00:39:32;;;;;;;4.32;2.00;;;15.60;99.90;;;;;;5029150;28;20106;-61
2022/05/16 00:41:58;;;;;;;4.63;1.98;;;15.50;99.90;;;;;;5025521;28;20040;-61
2022/05/16 00:44:24;;;;;;;3.13;2.20;;;15.50;99.90;;;;;;5028600;28;20463;-61
2022/05/16 00:46:50;;;;;;;2.60;1.60;;;15.50;99.90;;;;;;5028815;28;20171;-61
2022/05/16 00:49:28;;;;;;;3.72;2.10;;;15.40;99.90;;;;;;5026102;28;21346;-58
2022/05/16 00:52:02;;;;;;;7.97;3.67;;;15.40;99.90;;;;;;5028173;28;20036;-60
2022/05/16 00:54:50;;;;;;;4.13;1.90;;;15.30;99.90;;;;;;5030375;28;20719;-60
2022/05/16 00:57:20;;;;;;;3.22;2.42;;;15.30;99.90;;;;;;5028265;28;20483;-59
2022/05/16 01:00:05;;;;;;;4.18;2.53;;;15.20;99.90;;;;;;5028783;28;20246;-60
2022/05/16 01:05:18;;;;;;;8.13;1.92;;;15.20;99.90;;;;;;5025676;28;20048;-60
2022/05/16 01:07:45;;;;;;;6.45;2.08;;;15.10;99.90;;;;;;5029897;28;20036;-59
2022/05/16 01:10:15;;;;;;;6.22;2.17;;;15.10;99.90;;;;;;5028175;28;20033;-59
2022/05/16 01:12:44;;;;;;;3.50;1.83;;;15.10;99.90;;;;;;5025562;28;20045;-60
2022/05/16 01:15:36;;;;;;;4.47;2.22;;;15.10;99.90;;;;;;5029636;28;20128;-60
2022/05/16 01:18:02;;;;;;;3.50;1.95;;;15.10;99.90;;;;;;5025581;28;20541;-60
2022/05/16 01:21:03;;;;;;;4.88;2.22;;;15.10;99.90;;;;;;5026072;28;20034;-60
2022/05/16 01:23:35;;;;;;;6.57;2.40;;;15.00;99.90;;;;;;5017468;28;20491;-60
2022/05/16 01:26:08;;;;;;;3.20;2.13;;;15.00;99.90;;;;;;5027172;28;20116;-61
2022/05/16 01:28:33;;;;;;;4.93;2.33;;;15.00;99.90;;;;;;5028327;28;20100;-60
2022/05/16 01:31:00;;;;;;;3.72;1.80;;;14.90;99.90;;;;;;5027809;28;20574;-61
2022/05/16 01:33:26;;;;;;;5.15;2.33;;;14.90;99.90;;;;;;5026824;28;20747;-61
2022/05/16 01:35:52;;;;;;;2.58;1.90;;;14.90;99.90;;;;;;5027045;28;20029;-61
2022/05/16 01:38:19;;;;;;;6.75;2.58;;;14.80;99.90;;;;;;5026126;28;20029;-60
2022/05/16 01:40:50;;;;;;;8.23;2.33;;;14.90;99.90;;;;;;5025601;28;20025;-60
2022/05/16 01:43:16;;;;;;;5.40;2.45;;;14.80;99.90;;;;;;5025771;28;20660;-61
2022/05/16 01:45:43;;;;;;;2.85;1.88;;;14.80;99.90;;;;;;5027240;28;20037;-61
2022/05/16 01:48:10;;;;;;;6.15;2.22;;;14.80;99.90;;;;;;5025466;28;20493;-61
2022/05/16 01:50:36;;;;;;;5.32;2.88;;;14.80;99.90;;;;;;5025412;28;20511;-61
2022/05/16 01:53:02;;;;;;;4.75;2.55;;;14.80;99.90;;;;;;5027436;28;20103;-61
2022/05/16 01:55:28;;;;;;;4.82;2.25;;;14.80;99.90;;;;;;5027861;28;20030;-61
2022/05/16 01:57:54;;;;;;;3.50;2.15;;;14.80;99.90;;;;;;5026076;28;20044;-61
2022/05/16 02:00:20;;;;;;;3.38;2.50;;;14.80;99.90;;;;;;5027709;28;20459;-61
2022/05/16 02:02:45;;;;;;;5.25;2.75;;;14.70;99.90;;;;;;5028039;28;20040;-61
2022/05/16 02:05:18;;;;;;;6.43;2.60;;;14.70;99.90;;;;;;5028535;28;20029;-59
2022/05/16 02:07:45;;;;;;;7.85;2.45;;;14.70;99.90;;;;;;5021360;28;20025;-60
2022/05/16 02:10:12;;;;;;;3.90;2.58;;;14.60;99.90;;;;;;5025900;28;20025;-61
2022/05/16 02:12:37;;;;;;;6.53;3.08;;;14.60;99.90;;;;;;5027483;28;20120;-60
2022/05/16 02:15:09;;;;;;;5.63;2.10;;;14.60;99.90;;;;;;5026136;28;20498;-61
2022/05/16 02:17:35;;;;;;;6.07;2.55;;;14.60;99.90;;;;;;5026756;28;20026;-61
2022/05/16 02:20:01;;;;;;;3.10;2.30;;;14.60;99.90;;;;;;5024643;28;20503;-61
2022/05/16 02:25:11;;;;;;;5.78;2.53;;;14.50;99.90;;;;;;5024714;28;20035;-61
2022/05/16 02:27:36;;;;;;;4.00;2.28;;;14.50;99.90;;;;;;5025103;28;20041;-60
2022/05/16 02:30:04;;;;;;;7.28;2.92;;;14.40;99.90;;;;;;5025987;28;20034;-61
2022/05/16 02:32:29;;;;;;;5.38;2.80;;;14.40;99.90;;;;;;5026995;28;20472;-60
2022/05/16 02:34:55;;;;;;;5.20;2.45;;;14.40;99.90;;;;;;5024876;28;20025;-61
2022/05/16 02:37:20;;;;;;;6.32;2.75;;;14.40;99.90;;;;;;5026164;28;20398;-60
2022/05/16 02:39:46;;;;;;;7.57;3.00;;;14.40;99.90;;;;;;5026181;28;20105;-61
2022/05/16 02:42:14;;;;;;;3.13;2.47;;;14.30;99.90;;;;;;5021498;28;20402;-61
2022/05/16 02:44:43;;;;;;;5.82;2.42;;;14.30;99.90;;;;;;5026344;28;20032;-61
2022/05/16 02:47:13;;;;;;;3.03;2.42;;;14.30;99.90;;;;;;5025130;28;20044;-61
2022/05/16 02:49:39;;;;;;;8.80;2.63;;;14.30;99.90;;;;;;5027619;28;20025;-60
2022/05/16 02:52:05;;;;;;;11.65;2.83;;;14.30;99.90;;;;;;5027453;28;20119;-61
2022/05/16 02:54:32;;;;;;;8.88;2.55;;;14.30;99.90;;;;;;5028378;28;20152;-61
2022/05/16 02:56:58;;;;;;;5.55;2.80;;;14.30;99.90;;;;;;5025673;28;20040;-59
2022/05/16 02:59:25;;;;;;;4.30;2.40;;;14.30;99.90;;;;;;5026871;28;20151;-58
2022/05/16 03:01:51;;;;;;;5.72;3.38;;;14.30;99.90;;;;;;5025361;28;20040;-61
2022/05/16 03:04:16;;;;;;;6.20;2.75;;;14.30;99.90;;;;;;5028756;28;20021;-59
2022/05/16 03:06:42;;;;;;;6.85;3.05;;;14.30;99.90;;;;;;5025390;28;20037;-59
2022/05/16 03:09:08;;;;;;;5.15;2.63;;;14.30;99.90;;;;;;5026885;28;20156;-56
2022/05/16 03:11:34;;;;;;;3.00;2.70;;;14.30;99.90;;;;;;5023856;28;20025;-60
2022/05/16 03:13:59;;;;;;;4.25;2.70;;;14.40;99.90;;;;;;5027005;28;20025;-59
2022/05/16 03:16:25;;;;;;;5.00;2.72;;;14.40;99.90;;;;;;5025015;28;20030;-61
2022/05/16 03:18:51;;;;;;;4.78;2.58;;;14.40;99.90;;;;;;5067389;22;20063;-59
2022/05/16 03:21:17;;;;;;;4.07;2.22;;;14.40;99.90;;;;;;5045319;28;20025;-61
2022/05/16 03:23:43;;;;;;;5.88;3.05;;;14.40;99.90;;;;;;5047649;28;20016;-60
2022/05/16 03:26:09;;;;;;;11.02;2.40;;;14.50;99.90;;;;;;5045012;28;20042;-58
2022/05/16 03:28:34;;;;;;;6.75;2.75;;;14.50;99.90;;;;;;5028823;28;20025;-61
2022/05/16 03:31:01;;;;;;;4.25;2.45;;;14.50;99.90;;;;;;5024066;28;20029;-59
2022/05/16 03:33:26;;;;;;;7.35;2.45;;;14.50;99.90;;;;;;5025481;28;20071;-60
2022/05/16 03:35:55;;;;;;;6.53;3.05;;;14.60;99.90;;;;;;5023037;28;20487;-61
2022/05/16 03:41:08;;;;;;;4.78;2.58;;;14.60;99.90;;;;;;5021170;28;20037;-60
2022/05/16 03:43:36;;;;;;;7.60;2.70;;;14.60;99.90;;;;;;5026077;28;20645;-59
2022/05/16 03:46:02;;;;;;;5.80;2.78;;;14.60;99.90;;;;;;5026027;28;20069;-60
2022/05/16 03:48:28;;;;;;;9.88;3.72;;;14.60;99.90;;;;;;5021567;28;20184;-60
2022/05/16 03:50:53;;;;;;;8.38;3.75;;;14.60;99.90;;;;;;5027408;28;20021;-60
2022/05/16 03:53:19;;;;;;;4.82;3.03;;;14.60;99.90;;;;;;5031682;28;20026;-60
2022/05/16 03:55:44;;;;;;;7.30;2.92;;;14.60;99.90;;;;;;5026458;28;20026;-60
2022/05/16 03:58:10;;;;;;;6.15;3.22;;;14.60;99.90;;;;;;5029447;28;20056;-60
2022/05/16 04:00:36;;;;;;;11.85;2.88;;;14.70;99.90;;;;;;5031130;28;20072;-60
2022/05/16 04:03:01;;;;;;;5.43;3.03;;;14.70;99.90;;;;;;5026968;28;20038;-59
2022/05/16 04:05:27;;;;;;;10.23;2.97;;;14.70;99.90;;;;;;5030601;28;20026;-58
2022/05/16 04:07:52;;;;;;;12.80;3.00;;;14.70;99.90;;;;;;5029957;28;20029;-61
2022/05/16 04:10:19;;;;;;;5.93;3.53;;;14.70;99.90;;;;;;5031760;28;22104;-61
2022/05/16 04:12:45;;;;;;;7.32;3.55;;;14.70;99.90;;;;;;5029787;28;20017;-60
2022/05/16 04:15:13;;;;;;;9.30;3.58;;;14.70;99.90;;;;;;5030299;28;20489;-60
2022/05/16 04:17:39;;;;;;;5.00;2.60;;;14.70;99.90;;;;;;5028767;28;20095;-59
2022/05/16 04:20:06;;;;;;;6.95;3.45;;;14.70;99.90;;;;;;5027410;28;20041;-60
2022/05/16 04:22:33;;;;;;;2.75;2.15;;;14.70;99.90;;;;;;5027706;28;20034;-60
2022/05/16 04:24:58;;;;;;;6.30;2.97;;;14.70;99.90;;;;;;5032968;28;20094;-59
2022/05/16 04:27:24;;;;;;;6.43;3.65;;;14.80;99.90;;;;;;5031547;28;20037;-59
2022/05/16 04:29:49;;;;;;;8.07;3.00;;;14.90;99.90;;;;;;5028525;28;20037;-57
2022/05/16 04:32:15;;;;;;;8.65;3.53;;;14.90;99.90;;;;;;5027382;28;20022;-58
2022/05/16 04:34:41;;;;;;;13.07;3.58;;;15.00;99.90;;;;;;5029797;28;20056;-60
2022/05/16 04:37:07;;;;;;;7.50;2.97;;;15.00;99.90;;;;;;5031237;28;20040;-61
2022/05/16 04:39:32;;;;;;;4.32;2.72;;;15.10;99.90;;;;;;5031388;28;20104;-60
2022/05/16 04:44:42;;;;;;;4.40;2.90;;;15.30;99.90;;;;;;5027296;28;20091;-59
2022/05/16 04:47:08;;;;;;;7.40;3.50;;;15.40;99.90;;;;;;5024659;28;20116;-61
2022/05/16 04:49:35;;;;;;;6.00;2.90;;;15.50;99.90;;;;;;5029037;28;20640;-61
2022/05/16 04:52:01;;;;;;;8.27;4.05;;;15.60;99.90;;;;;;5025196;28;20418;-60
2022/05/16 04:54:27;;;;;;;12.18;2.85;;;15.70;99.90;;;;;;5029972;28;20029;-58
2022/05/16 04:56:52;;;;;;;7.20;3.10;;;15.80;99.90;;;;;;5026026;28;20021;-60
2022/05/16 04:59:19;;;;;;;6.28;2.45;;;15.90;99.90;;;;;;5029467;28;20045;-61
2022/05/16 05:01:45;;;;;;;3.80;3.08;;;16.00;99.90;;;;;;5024699;28;20380;-59
2022/05/16 05:04:11;;;;;;;7.15;2.60;;;16.10;99.90;;;;;;5023123;28;20048;-60
2022/05/16 05:06:37;;;;;;;8.68;3.47;;;16.20;99.90;;;;;;5028373;28;20022;-58
2022/05/16 05:09:03;;;;;;;4.85;2.63;;;16.30;99.90;;;;;;5028897;28;20021;-60
2022/05/16 05:16:56;;;;;;;5.53;3.10;;;16.40;99.90;;;;;;5027919;28;20048;-61
2022/05/16 05:19:22;;;;;;;5.97;2.67;;;16.50;99.90;;;;;;5028125;28;20296;-60
2022/05/16 05:21:48;;;;;;;10.10;2.72;;;16.50;99.90;;;;;;5026273;28;20041;-59
2022/05/16 05:24:13;;;;;;;10.80;3.28;;;16.60;99.90;;;;;;5035168;28;20112;-58
2022/05/16 05:26:39;;;;;;;6.15;2.55;;;16.60;99.90;;;;;;5023751;28;20048;-61
2022/05/16 05:29:05;;;;;;;6.10;3.20;;;16.60;99.90;;;;;;5026445;28;20022;-61
2022/05/16 05:31:31;;;;;;;8.70;2.45;;;16.70;99.90;;;;;;5023234;28;20025;-60
2022/05/16 05:33:57;;;;;;;3.80;2.13;;;16.70;99.90;;;;;;5028798;28;20037;-60
2022/05/16 05:36:24;;;;;;;5.95;2.67;;;16.70;99.90;;;;;;5028595;28;20028;-61
2022/05/16 05:38:51;;;;;;;5.82;3.30;;;16.70;99.90;;;;;;5026925;28;20052;-61
2022/05/16 05:41:18;;;;;;;11.82;2.90;;;16.70;99.90;;;;;;5030229;28;20075;-61
2022/05/16 05:43:44;;;;;;;6.75;3.00;;;16.80;99.90;;;;;;5031764;28;20037;-60
2022/05/16 05:46:09;;;;;;;11.75;2.80;;;16.80;99.90;;;;;;5031925;28;20591;-60
2022/05/16 05:48:35;;;;;;;5.60;3.38;;;16.80;99.90;;;;;;5033136;28;20582;-60
2022/05/16 05:51:01;;;;;;;4.55;2.55;;;16.80;99.90;;;;;;5027946;28;20021;-60
2022/05/16 05:53:26;;;;;;;7.78;3.10;;;16.70;99.90;;;;;;5030493;28;20483;-59
2022/05/16 05:55:52;;;;;;;6.05;2.75;;;16.60;99.90;;;;;;5029645;28;20128;-60
2022/05/16 05:58:18;;;;;;;6.75;2.03;;;16.70;99.90;;;;;;5033833;28;20040;-60
2022/05/16 06:00:44;;;;;;;7.05;2.63;;;16.70;99.90;;;;;;5030629;28;20022;-60
2022/05/16 06:03:10;;;;;;;8.13;2.78;;;16.80;99.90;;;;;;5029084;28;20052;-61
2022/05/16 06:05:35;;;;;;;6.82;3.28;;;16.80;99.90;;;;;;5026371;28;20032;-60
2022/05/16 06:08:01;;;;;;;7.15;2.67;;;16.80;99.90;;;;;;5030279;28;20044;-60
2022/05/16 06:10:27;;;;;;;11.43;2.40;;;16.90;99.90;;;;;;5029661;28;20036;-61
2022/05/16 06:12:53;;;;;;;7.38;2.90;;;16.90;99.90;;;;;;5027785;28;20026;-60
2022/05/16 06:15:19;;;;;;;8.52;2.72;;;16.90;99.90;;;;;;5033007;28;20025;-60
2022/05/16 06:17:46;;;;;;;4.10;2.70;;;16.90;99.90;;;;;;5030594;28;20029;-60
2022/05/16 06:20:13;;;;;;;14.77;2.83;;;16.90;99.90;;;;;;5032241;28;20037;-60
2022/05/16 06:22:39;;;;;;;6.28;2.58;;;16.90;99.90;;;;;;5028257;28;20057;-58
2022/05/16 06:25:31;;;;;;;5.68;2.40;;;16.90;99.90;;;;;;5028228;28;20068;-60
2022/05/16 06:27:58;;;;;;;7.47;2.70;;;16.90;99.90;;;;;;5023063;28;20037;-59
2022/05/16 06:30:24;;;;;;;9.68;2.40;;;16.90;99.90;;;;;;5029584;28;20030;-61
2022/05/16 06:32:50;;;;;;;7.57;2.35;;;16.90;99.90;;;;;;5029850;28;20033;-60
2022/05/16 06:35:16;;;;;;;6.57;2.58;;;17.00;99.90;;;;;;5030810;28;20032;-60
2022/05/16 06:37:42;;;;;;;10.07;3.85;;;17.00;99.90;;;;;;5030829;28;20057;-60
2022/05/16 06:40:09;;;;;;;6.28;2.70;;;17.00;99.90;;;;;;5031342;28;20061;-59
2022/05/16 06:42:35;;;;;;;7.35;2.80;;;17.00;99.90;;;;;;5029689;28;20087;-60
2022/05/16 06:45:00;;;;;;;10.30;3.13;;;17.00;99.90;;;;;;5030834;28;20033;-60
2022/05/16 06:47:26;;;;;;;6.47;3.00;;;17.10;99.90;;;;;;5030720;28;20116;-60
2022/05/16 06:49:51;;;;;;;8.52;2.85;;;17.10;99.90;;;;;;5031356;28;20026;-58
2022/05/16 06:52:18;;;;;;;9.43;3.17;;;17.20;99.90;;;;;;5026799;28;20498;-58
2022/05/16 06:54:44;;;;;;;6.22;3.22;;;17.20;99.90;;;;;;5028138;28;20029;-60
2022/05/16 06:57:10;;;;;;;6.40;3.20;;;17.20;99.90;;;;;;5028183;28;20125;-61
2022/05/16 06:59:36;;;;;;;8.23;3.20;;;17.20;99.90;;;;;;5030944;28;20112;-60
2022/05/16 07:02:02;;;;;;;12.10;3.63;;;17.30;99.90;;;;;;5026271;28;20060;-59
2022/05/16 07:04:28;;;;;;;6.13;2.75;;;17.20;99.90;;;;;;5028855;28;20459;-60
2022/05/16 07:06:53;;;;;;;7.88;3.50;;;17.10;99.90;;;;;;5030164;28;20049;-59
2022/05/16 07:09:19;;;;;;;8.48;3.10;;;17.20;99.90;;;;;;5032503;28;20021;-59
2022/05/16 07:11:45;;;;;;;7.00;3.30;;;17.20;99.90;;;;;;5025789;28;20025;-60
2022/05/16 07:14:10;;;;;;;9.63;3.53;;;17.20;99.90;;;;;;5031483;28;20056;-57
2022/05/16 07:16:36;;;;;;;5.40;3.47;;;17.20;99.90;;;;;;5028774;28;20025;-61
2022/05/16 07:19:02;;;;;;;11.23;3.10;;;17.30;99.90;;;;;;5035352;28;20029;-60
2022/05/16 07:21:28;;;;;;;13.52;3.30;;;17.40;99.90;;;;;;5030119;28;20033;-59
2022/05/16 07:23:54;;;;;;;9.98;3.55;;;17.50;99.90;;;;;;5029941;28;20038;-60
2022/05/16 07:29:04;;;;;;;6.25;3.08;;;17.70;99.90;;;;;;5033414;28;20079;-59
2022/05/16 07:31:29;;;;;;;12.27;3.13;;;17.90;99.90;;;;;;5032129;28;20033;-60
2022/05/16 07:33:55;;;;;;;7.28;3.55;;;18.00;99.90;;;;;;5033240;28;20076;-60
2022/05/16 07:36:20;;;;;;;5.05;2.58;;;18.20;99.90;;;;;;5031877;28;20515;-61
2022/05/16 07:38:46;;;;;;;14.13;3.67;;;18.20;99.90;;;;;;5032647;28;20034;-60
2022/05/16 07:41:12;;;;;;;4.57;3.20;;;18.30;99.90;;;;;;5032765;28;20025;-61
2022/05/16 07:43:37;;;;;;;7.28;3.00;;;18.40;99.90;;;;;;5033790;28;20096;-61
2022/05/16 07:46:06;;;;;;;8.57;2.88;;;18.50;99.90;;;;;;5033725;28;20124;-60
2022/05/16 07:48:32;;;;;;;6.75;3.13;;;18.50;99.90;;;;;;5033243;28;20505;-61
2022/05/16 07:50:57;;;;;;;10.88;2.92;;;18.50;99.90;;;;;;5033127;28;20028;-60
2022/05/16 07:53:23;;;;;;;8.52;2.88;;;18.30;99.90;;;;;;5032017;28;20022;-60
2022/05/16 07:55:51;;;;;;;9.35;3.28;;;18.40;99.90;;;;;;5030179;28;20473;-60
2022/05/16 07:58:20;;;;;;;7.10;2.83;;;18.40;99.90;;;;;;5032060;28;20040;-61
2022/05/16 08:00:46;;;;;;;3.47;2.90;;;18.40;99.90;;;;;;5031332;28;20018;-61
2022/05/16 08:03:12;;;;;;;9.52;3.40;;;18.40;99.90;;;;;;5032300;28;20067;-61
2022/05/16 08:05:38;;;;;;;7.18;2.65;;;18.50;99.90;;;;;;5033616;28;20510;-61
2022/05/16 08:10:50;;;;;;;12.80;3.22;;;18.70;99.90;;;;;;5032129;28;20457;-61
2022/05/16 08:13:15;;;;;;;6.95;3.13;;;18.80;99.90;;;;;;5031254;28;20025;-60
2022/05/16 08:15:42;;;;;;;4.82;3.20;;;18.90;99.90;;;;;;5032382;28;20056;-62
2022/05/16 08:18:10;;;;;;;9.65;4.00;;;18.90;99.90;;;;;;5029237;28;20461;-60
2022/05/16 08:20:37;;;;;;;8.30;3.13;;;18.90;99.90;;;;;;5030474;28;20033;-61
2022/05/16 08:23:04;;;;;;;6.40;2.72;;;18.80;99.90;;;;;;5031094;28;20079;-61
2022/05/16 08:25:30;;;;;;;13.13;2.83;;;18.80;99.90;;;;;;5024190;28;20033;-61
2022/05/16 08:27:56;;;;;;;6.88;2.58;;;18.90;99.90;;;;;;5025050;28;20029;-60
2022/05/16 08:30:23;;;;;;;5.60;3.30;;;19.00;99.90;;;;;;5028685;28;20029;-61
2022/05/16 08:32:49;;;;;;;9.02;3.15;;;19.10;99.90;;;;;;5031728;28;20029;-61
2022/05/16 08:35:17;;;;;;;8.95;2.60;;;19.30;99.90;;;;;;5031421;28;20494;-60
2022/05/16 08:41:04;;;;;;;9.40;3.13;;;19.60;99.90;;;;;;5028335;28;20121;-60
2022/05/16 08:43:57;;;;;;;5.10;2.47;;;19.90;99.90;;;;;;5026151;28;20040;-61
2022/05/16 08:46:46;;;;;;;5.35;2.80;;;20.30;99.90;;;;;;5029333;28;20402;-59
2022/05/16 08:49:21;;;;;;;4.93;2.42;;;20.40;99.90;;;;;;5028286;28;20101;-61
2022/05/16 08:51:53;;;;;;;3.97;2.92;;;20.40;99.90;;;;;;5025819;28;20040;-61
2022/05/16 08:54:42;;;;;;;7.70;2.58;;;20.60;99.90;;;;;;5029572;28;20448;-61
2022/05/16 08:57:26;;;;;;;12.38;2.35;;;20.80;99.90;;;;;;5030496;28;20028;-60
2022/05/16 09:00:01;;;;;;;7.72;2.65;;;20.90;99.90;;;;;;5023144;28;20030;-60
2022/05/16 09:02:30;;;;;;;5.13;2.58;;;21.20;99.90;;;;;;5028058;28;20044;-60
2022/05/16 09:05:03;;;;;;;4.30;2.88;;;21.40;99.90;;;;;;5031938;28;20372;-59
2022/05/16 09:07:37;;;;;;;10.90;2.50;;;21.30;99.90;;;;;;5022097;28;20108;-61
2022/05/16 09:10:11;;;;;;;3.85;2.20;;;21.30;99.90;;;;;;5031807;28;20113;-63
2022/05/16 09:12:46;;;;;;;8.18;2.20;;;21.50;99.90;;;;;;5031940;28;20119;-60
2022/05/16 09:15:17;;;;;;;12.75;2.60;;;21.70;99.90;;;;;;5032711;28;20033;-61
2022/05/16 09:18:04;;;;;;;6.05;2.28;;;21.80;99.90;;;;;;5026974;28;20033;-60
2022/05/16 09:20:43;;;;;;;5.30;1.95;;;22.00;99.90;;;;;;5051532;22;20382;-60
2022/05/16 09:23:17;;;;;;;3.67;2.38;;;22.30;99.90;;;;;;5090191;28;20024;-59
2022/05/16 09:26:09;;;;;;;4.57;2.40;;;22.50;99.90;;;;;;5089813;28;20028;-59
2022/05/16 09:28:46;;;;;;;4.70;2.20;;;22.70;99.90;;;;;;5090350;28;20028;-58
2022/05/16 09:31:33;;;;;;;14.40;2.35;;;22.70;99.90;;;;;;5080362;28;20516;-58
2022/05/16 09:34:00;;;;;;;4.90;2.40;;;23.00;99.90;;;;;;5072482;28;20085;-58
2022/05/16 09:36:39;;;;;;;3.63;2.00;;;23.10;99.90;;;;;;5070045;28;20039;-60
2022/05/16 09:39:07;;;;;;;10.15;2.33;;;23.40;99.90;;;;;;5069921;28;20081;-59
2022/05/16 09:41:51;;;;;;;6.38;1.73;;;23.60;99.90;;;;;;5068921;28;20020;-57
2022/05/16 09:44:39;;;;;;;2.53;1.90;;;23.90;99.90;;;;;;5070828;28;20082;-60
2022/05/16 09:47:34;;;;;;;6.40;1.85;;;24.00;99.90;;;;;;5063426;28;20052;-59
2022/05/16 09:50:02;;;;;;;3.80;2.28;;;24.20;99.90;;;;;;5068973;28;20025;-58
2022/05/16 09:52:33;;;;;;;4.10;2.33;;;24.20;99.90;;;;;;5073709;28;20029;-57
2022/05/16 09:55:12;;;;;;;8.70;2.10;;;24.30;99.90;;;;;;5068985;28;20024;-56
2022/05/16 09:57:50;;;;;;;5.82;2.47;;;24.60;99.90;;;;;;5068762;28;20528;-59
2022/05/16 10:00:23;;;;;;;5.22;2.33;;;24.80;99.90;;;;;;5072935;28;20437;-59
2022/05/16 10:02:59;;;;;;;9.23;2.72;;;24.90;99.90;;;;;;5068015;28;20028;-56
2022/05/16 10:05:31;;;;;;;7.60;2.45;;;25.10;99.90;;;;;;5069285;28;20627;-58
2022/05/16 10:08:04;;;;;;;6.82;2.10;;;25.30;99.90;;;;;;5068963;28;20024;-60
2022/05/16 10:10:37;;;;;;;2.55;1.85;;;25.60;99.90;;;;;;5072483;28;20025;-59
2022/05/16 10:13:04;;;;;;;6.03;2.40;;;25.80;99.90;;;;;;5069312;28;20500;-60
2022/05/16 10:15:31;;;;;;;3.63;1.77;;;26.10;99.90;;;;;;5070554;28;20556;-60
2022/05/16 10:17:59;;;;;;;3.63;1.58;;;26.40;99.90;;;;;;5069041;28;20016;-58
2022/05/16 10:20:32;;;;;;;3.75;1.85;;;26.50;99.90;;;;;;5069451;28;20044;-57
2022/05/16 10:23:02;;;;;;;8.45;1.92;;;26.40;99.90;;;;;;5068088;28;20030;-59
2022/05/16 10:25:38;;;;;;;4.68;1.42;;;26.50;99.90;;;;;;5069365;28;20082;-58
2022/05/16 10:28:08;;;;;;;5.13;1.45;;;26.40;99.90;;;;;;5069642;28;20111;-60
2022/05/16 10:33:24;;;;;;;4.82;1.70;;;26.90;99.90;;;;;;5060207;28;20033;-58
2022/05/16 10:33:24;;;;;;;5.28;1.70;;;26.60;99.90;;;;;;5068717;28;20031;-57
2022/05/16 10:36:05;;;;;;;5.35;1.73;;;27.20;99.90;;;;;;5061075;28;20030;-60
2022/05/16 10:38:47;;;;;;;4.78;1.52;;;27.50;99.90;;;;;;5068412;28;20070;-60
2022/05/16 10:41:20;;;;;;;8.02;1.73;;;27.80;99.90;;;;;;5067136;28;20382;-59
2022/05/16 10:44:29;;;;;;;3.40;1.30;;;27.80;99.90;;;;;;5068448;28;20027;-59
2022/05/16 10:47:07;;;;;;;2.25;1.70;;;28.00;99.90;;;;;;5050662;28;20040;-58
2022/05/16 10:49:48;;;;;;;3.03;1.67;;;27.60;99.90;;;;;;5068748;28;20025;-58
2022/05/16 10:52:27;;;;;;;7.18;1.50;;;27.40;99.90;;;;;;5068565;28;20091;-58
2022/05/16 10:54:53;;;;;;;2.58;1.35;;;26.80;99.90;;;;;;5068377;28;20017;-59
2022/05/16 10:57:40;;;;;;;6.28;1.40;;;26.50;99.90;;;;;;5066304;28;20059;-60
2022/05/16 11:00:10;;;;;;;2.08;1.40;;;26.20;99.90;;;;;;5068065;28;20450;-60
2022/05/16 11:02:53;;;;;;;2.53;1.77;;;26.10;99.90;;;;;;5067858;28;20032;-61
2022/05/16 11:05:47;;;;;;;3.90;1.58;;;26.00;99.90;;;;;;5071157;28;20510;-61
2022/05/16 11:08:18;;;;;;;4.35;1.55;;;25.80;99.90;;;;;;5035809;28;20375;-57
2022/05/16 11:11:08;;;;;;;6.88;1.52;;;25.80;99.90;;;;;;5072188;28;20082;-60
2022/05/16 11:13:48;;;;;;;2.67;1.33;;;25.90;99.90;;;;;;5072215;28;20024;-58
2022/05/16 11:16:27;;;;;;;4.78;1.65;;;25.90;99.90;;;;;;5078458;28;20086;-60
2022/05/16 11:19:00;;;;;;;4.53;1.98;;;26.00;99.90;;;;;;5078395;28;20067;-57
2022/05/16 11:21:43;;;;;;;4.43;2.55;;;26.20;99.90;;;;;;5076626;28;20035;-61
2022/05/16 11:24:14;;;;;;;5.50;2.45;;;26.80;99.90;;;;;;5068525;28;20118;-61
2022/05/16 11:26:39;;;;;;;4.13;2.10;;;27.10;99.90;;;;;;5063313;28;20714;-60
2022/05/16 11:29:19;;;;;;;4.75;1.98;;;27.00;99.90;;;;;;5073471;28;20036;-61
2022/05/16 11:32:03;;;;;;;4.53;1.95;;;26.80;99.90;;;;;;5071382;28;20031;-61
2022/05/16 11:35:01;;;;;;;5.18;2.35;;;26.60;99.90;;;;;;5067064;28;20078;-61
2022/05/16 11:38:08;;;;;;;5.55;2.08;;;26.70;99.90;;;;;;5069732;28;20109;-62
2022/05/16 11:41:04;;;;;;;6.25;1.70;;;26.90;99.90;;;;;;4985475;28;20476;-58
2022/05/16 11:43:34;;;;;;;4.82;2.00;;;26.60;99.90;;;;;;5071190;28;20113;-60
2022/05/16 11:46:09;;;;;;;9.27;2.05;;;26.60;99.90;;;;;;5071151;28;20040;-60
2022/05/16 11:48:56;;;;;;;4.35;2.35;;;26.10;99.90;;;;;;5071649;28;20437;-62
2022/05/16 11:51:59;;;;;;;6.78;2.50;;;26.00;99.90;;;;;;5074219;28;20025;-59
2022/05/16 11:54:30;;;;;;;3.13;2.10;;;25.90;99.90;;;;;;5069280;28;20071;-61
2022/05/16 12:02:28;;;;;;;4.57;1.67;;;25.30;99.90;;;;;;5071741;28;20078;-58
2022/05/16 12:05:20;;;;;;;6.50;1.80;;;25.20;99.90;;;;;;5069861;28;20032;-60
2022/05/16 12:07:48;;;;;;;3.13;1.90;;;25.10;99.90;;;;;;5061894;28;20036;-60
2022/05/16 12:10:14;;;;;;;5.22;2.25;;;24.80;99.90;;;;;;5069224;28;20023;-59
2022/05/16 12:12:42;;;;;;;4.65;2.53;;;24.70;99.90;;;;;;5071034;28;20020;-59
2022/05/16 12:15:16;;;;;;;4.07;2.15;;;24.50;99.90;;;;;;5073200;28;20020;-59
2022/05/16 12:17:52;;;;;;;11.18;2.80;;;24.20;99.90;;;;;;5069508;28;20516;-57
2022/05/16 12:20:50;;;;;;;11.07;2.40;;;24.10;99.90;;;;;;5075279;28;20036;-59
2022/05/16 12:23:48;;;;;;;10.93;2.33;;;23.90;99.90;;;;;;5031437;28;20048;-59
2022/05/16 12:26:31;;;;;;;8.15;2.40;;;23.70;99.90;;;;;;5073168;28;20032;-57
2022/05/16 12:29:09;;;;;;;12.30;3.00;;;23.60;99.90;;;;;;5070479;28;20025;-61
2022/05/16 12:31:50;;;;;;;7.95;2.78;;;23.40;99.90;;;;;;5076444;28;20458;-60
2022/05/16 12:34:49;;;;;;;6.97;2.80;;;23.00;99.90;;;;;;5073085;28;20143;-56
2022/05/16 12:37:17;;;;;;;8.20;2.65;;;22.90;99.90;;;;;;5067451;28;20138;-60
2022/05/16 12:39:58;;;;;;;16.30;3.30;;;22.60;99.90;;;;;;5074763;28;20189;-57
2022/05/16 12:42:26;;;;;;;6.25;2.70;;;22.00;99.90;;;;;;5076656;28;20017;-58
2022/05/16 12:45:32;;;;;;;7.68;2.22;;;21.80;99.90;;;;;;5074477;28;21972;-58
2022/05/16 12:48:40;;;;;;;11.93;2.65;;;21.20;99.90;;;;;;5073809;28;20111;-60
2022/05/16 12:51:33;;;;;;;12.80;3.05;;;20.60;99.90;;;;;;5055255;28;20016;-64
2022/05/16 12:54:26;;;;;;;7.65;2.45;;;19.40;99.90;;;;;;5071129;28;20024;-64
2022/05/16 12:56:55;;;;;;;15.77;3.97;;;19.00;99.90;;;;;;5074755;28;20450;-65
2022/05/16 12:59:47;;;;;;;9.07;2.70;;;18.30;99.90;;;;;;5068553;28;20036;-54
2022/05/16 13:02:31;;;;;;;15.55;3.80;;;18.00;99.90;;;;;;5066499;28;20033;-60
2022/05/16 13:05:16;;;;;;;20.05;4.78;;;17.90;99.90;;;;;;5069353;28;20090;-60
2022/05/16 13:07:44;;;;;;;14.45;4.35;;;17.70;99.90;;;;;;5071426;28;20409;-61
2022/05/16 13:10:51;;;;;;;10.13;4.93;;;17.60;99.90;;;;;;5067896;28;20024;-59
2022/05/16 13:13:44;;;;;;;6.32;3.33;;;17.50;99.90;;;;;;5065337;28;20020;-60
2022/05/16 13:16:20;;;;;;;7.60;3.67;;;17.40;99.90;;;;;;5064810;28;20028;-60
2022/05/16 13:18:52;;;;;;;5.50;3.30;;;17.40;99.90;;;;;;5074154;28;20025;-61
2022/05/16 13:21:20;;;;;;;4.65;3.38;;;17.50;99.90;;;;;;5063742;28;20028;-60
2022/05/16 13:23:46;;;;;;;5.47;2.95;;;17.50;99.90;;;;;;5068351;28;20025;-62
2022/05/16 13:31:44;;;;;;;11.07;4.40;;;17.50;99.90;;;;;;5070040;28;20162;-62
2022/05/16 13:34:31;;;;;;;10.05;4.18;;;17.60;99.90;;;;;;5068019;28;20115;-61
2022/05/16 13:36:58;;;;;;;9.35;4.43;;;17.70;99.90;;;;;;5064711;28;20035;-61
2022/05/16 13:39:23;;;;;;;15.27;4.78;;;17.80;99.90;;;;;;5072097;28;20334;-61
2022/05/16 13:41:57;;;;;;;10.45;4.55;;;17.90;99.90;;;;;;5073812;28;20038;-62